createdAt,value
2024-02-09T00:02:22.075Z,-6.04
2024-02-09T00:04:52.126Z,-4.20
2024-02-09T00:07:23.015Z,-4.53
2024-02-09T00:09:52.047Z,-4.44
2024-02-09T00:12:22.439Z,-3.67
2024-02-09T00:14:51.304Z,-5.14
2024-02-09T00:17:20.494Z,-5.93
2024-02-09T00:19:49.427Z,-4.64
2024-02-09T00:22:19.826Z,-3.89
2024-02-09T00:24:48.454Z,-6.51
2024-02-09T00:27:17.804Z,-4.34
2024-02-09T00:29:46.631Z,-5.54
2024-02-09T00:32:16.226Z,-4.48
2024-02-09T00:34:49.171Z,-4.45
2024-02-09T00:37:23.170Z,-4.42
2024-02-09T00:39:52.308Z,-4.21
2024-02-09T00:42:22.219Z,-4.53
2024-02-09T00:44:51.833Z,-4.13
2024-02-09T00:47:23.721Z,-5.60
2024-02-09T00:49:54.927Z,-5.23
2024-02-09T00:52:26.583Z,-6.01
2024-02-09T00:54:55.296Z,-4.30
2024-02-09T00:57:26.416Z,-4.63
2024-02-09T00:59:57.997Z,-4.31
2024-02-09T01:02:27.632Z,-6.47
2024-02-09T01:04:57.836Z,-3.95
2024-02-09T01:07:29.231Z,-3.83
2024-02-09T01:10:00.065Z,-6.61
2024-02-09T01:12:46.883Z,-4.06
2024-02-09T01:15:33.039Z,-4.33
2024-02-09T01:18:20.107Z,-4.49
2024-02-09T01:21:06.010Z,-4.64
2024-02-09T01:23:53.932Z,-5.63
2024-02-09T01:26:39.983Z,-4.74
2024-02-09T01:29:26.715Z,-4.92
2024-02-09T01:32:12.896Z,-5.66
2024-02-09T01:34:59.238Z,-5.38
2024-02-09T01:37:45.161Z,-5.46
2024-02-09T01:40:35.790Z,-4.91
2024-02-09T01:43:24.198Z,-4.81
2024-02-09T01:46:13.392Z,-4.69
2024-02-09T01:49:02.746Z,-5.15
2024-02-09T01:51:51.480Z,-4.74
2024-02-09T01:54:38.102Z,-4.61
2024-02-09T01:57:27.890Z,-4.83
2024-02-09T02:00:14.988Z,-4.51
2024-02-09T02:03:01.808Z,-5.10
2024-02-09T02:05:48.433Z,-4.96
2024-02-09T02:08:35.050Z,-5.35
2024-02-09T02:11:20.690Z,-5.86
2024-02-09T02:14:08.649Z,-5.44
2024-02-09T02:16:54.071Z,-6.22
2024-02-09T02:19:40.413Z,-5.88
2024-02-09T02:22:33.201Z,-5.57
2024-02-09T02:25:23.722Z,-5.54
2024-02-09T02:28:09.914Z,-5.44
2024-02-09T02:30:58.609Z,-5.64
2024-02-09T02:33:44.823Z,-6.05
2024-02-09T02:36:31.393Z,-5.64
2024-02-09T02:39:18.252Z,-5.71
2024-02-09T02:41:46.056Z,-5.97
2024-02-09T02:44:13.506Z,-8.41
2024-02-09T02:46:47.124Z,-5.84
2024-02-09T02:49:33.656Z,-6.32
2024-02-09T02:52:20.815Z,-6.01
2024-02-09T02:55:06.665Z,-5.81
2024-02-09T02:57:52.830Z,-5.91
2024-02-09T03:00:38.852Z,-6.12
2024-02-09T03:03:26.804Z,-6.03
2024-02-09T03:05:55.450Z,-5.73
2024-02-09T03:08:45.673Z,-6.05
2024-02-09T03:11:13.257Z,-6.26
2024-02-09T03:13:44.172Z,-5.92
2024-02-09T03:16:12.974Z,-6.12
2024-02-09T03:18:46.449Z,-5.78
2024-02-09T03:21:27.171Z,-6.12
2024-02-09T03:23:57.891Z,-6.20
2024-02-09T03:26:26.391Z,-6.29
2024-02-09T03:28:56.800Z,-6.07
2024-02-09T03:39:51.073Z,-6.37
2024-02-09T03:42:21.967Z,-6.54
2024-02-09T03:44:51.118Z,-6.82
2024-02-09T03:47:21.333Z,-8.47
2024-02-09T03:49:56.476Z,-6.11
2024-02-09T03:52:26.476Z,-6.07
2024-02-09T03:54:57.746Z,-6.51
2024-02-09T03:57:28.563Z,-6.38
2024-02-09T03:59:59.629Z,-6.12
2024-02-09T04:02:29.516Z,-6.35
2024-02-09T04:04:57.822Z,-6.10
2024-02-09T04:07:27.952Z,-6.22
2024-02-09T04:10:25.025Z,-6.18
2024-02-09T04:12:47.213Z,-6.19
2024-02-09T04:15:15.807Z,-6.17
2024-02-09T04:17:46.511Z,-6.10
2024-02-09T04:20:15.665Z,-6.83
2024-02-09T04:22:44.759Z,-6.64
2024-02-09T04:25:16.737Z,-6.67
2024-02-09T04:27:45.865Z,-6.29
2024-02-09T04:30:17.329Z,-5.79
2024-02-09T04:32:46.452Z,-5.61
2024-02-09T04:35:15.957Z,-6.14
2024-02-09T04:37:45.550Z,-7.07
2024-02-09T04:40:16.194Z,-5.76
2024-02-09T04:42:45.006Z,-6.17
2024-02-09T04:45:13.670Z,-6.24
2024-02-09T04:47:43.038Z,-6.28
2024-02-09T04:50:12.893Z,-5.98
2024-02-09T04:52:41.946Z,-6.33
2024-02-09T04:55:12.440Z,-7.08
2024-02-09T04:57:44.407Z,-6.13
2024-02-09T05:00:14.315Z,-8.14
2024-02-09T05:02:46.936Z,-6.19
2024-02-09T05:05:14.759Z,-6.32
2024-02-09T05:07:44.241Z,-6.36
2024-02-09T05:10:13.966Z,-6.09
2024-02-09T05:12:44.510Z,-6.88
2024-02-09T05:15:13.748Z,-6.04
2024-02-09T05:17:43.041Z,-5.94
2024-02-09T05:20:15.236Z,-6.52
2024-02-09T05:22:48.333Z,-6.09
2024-02-09T05:25:17.249Z,-6.03
2024-02-09T05:27:49.638Z,-5.99
2024-02-09T05:30:18.838Z,-6.16
2024-02-09T05:32:51.044Z,-6.32
2024-02-09T05:35:22.150Z,-5.96
2024-02-09T05:37:51.188Z,-5.93
2024-02-09T05:40:21.263Z,-5.90
2024-02-09T05:42:51.998Z,-6.33
2024-02-09T05:45:20.703Z,-6.20
2024-02-09T05:47:50.256Z,-5.98
2024-02-09T05:50:26.597Z,-5.81
2024-02-09T05:53:02.629Z,-6.12
2024-02-09T05:55:31.258Z,-5.63
2024-02-09T05:58:03.846Z,-5.64
2024-02-09T06:00:33.031Z,-5.52
2024-02-09T06:03:03.949Z,-5.78
2024-02-09T06:05:33.791Z,-6.40
2024-02-09T06:08:03.273Z,-6.83
2024-02-09T06:10:32.116Z,-7.22
2024-02-09T06:13:02.755Z,-7.28
2024-02-09T06:15:32.937Z,-6.61
2024-02-09T06:18:04.197Z,-5.83
2024-02-09T06:20:34.493Z,-6.07
2024-02-09T06:23:06.279Z,-5.92
2024-02-09T06:25:35.363Z,-5.95
2024-02-09T06:28:06.372Z,-6.04
2024-02-09T06:30:34.849Z,-6.81
2024-02-09T06:33:05.074Z,-6.37
2024-02-09T06:35:34.945Z,-5.81
2024-02-09T06:38:05.176Z,-6.04
2024-02-09T06:40:33.973Z,-6.00
2024-02-09T06:43:02.963Z,-5.68
2024-02-09T06:45:36.925Z,-5.65
2024-02-09T06:48:07.233Z,-5.74
2024-02-09T06:50:37.957Z,-5.50
2024-02-09T06:53:08.448Z,-5.61
2024-02-09T06:55:39.109Z,-5.17
2024-02-09T06:58:08.551Z,-6.17
2024-02-09T07:00:43.028Z,-5.14
2024-02-09T07:03:17.301Z,-5.33
2024-02-09T07:05:47.211Z,-5.05
2024-02-09T07:08:27.993Z,-4.95
2024-02-09T07:10:56.875Z,-4.84
2024-02-09T07:13:25.651Z,-4.80
2024-02-09T07:15:55.843Z,-4.76
2024-02-09T07:18:25.058Z,-4.98
2024-02-09T07:20:53.543Z,-4.70
2024-02-09T07:23:22.383Z,-4.30
2024-02-09T07:25:51.090Z,-4.14
2024-02-09T07:28:20.143Z,-5.43
2024-02-09T07:30:48.705Z,-3.99
2024-02-09T07:33:19.853Z,-3.93
2024-02-09T07:35:48.481Z,-3.83
2024-02-09T07:38:17.762Z,-3.77
2024-02-09T07:40:46.432Z,-3.71
2024-02-09T07:43:18.063Z,-3.59
2024-02-09T07:45:46.794Z,-4.76
2024-02-09T07:48:15.868Z,-3.38
2024-02-09T07:50:46.080Z,-3.37
2024-02-09T07:53:16.995Z,-3.81
2024-02-09T07:55:45.535Z,-3.60
2024-02-09T07:58:14.293Z,-5.75
2024-02-09T08:00:43.116Z,-3.76
2024-02-09T08:03:13.302Z,-5.66
2024-02-09T08:05:42.457Z,-3.17
2024-02-09T08:08:12.584Z,-3.09
2024-02-09T08:10:41.684Z,-3.09
2024-02-09T08:13:11.287Z,-3.15
2024-02-09T08:15:41.305Z,-3.07
2024-02-09T08:18:10.446Z,-3.04
2024-02-09T08:20:39.100Z,-2.98
2024-02-09T08:23:08.259Z,-2.91
2024-02-09T08:25:38.416Z,-3.76
2024-02-09T08:28:07.657Z,-3.23
2024-02-09T08:30:36.663Z,-3.57
2024-02-09T08:33:06.256Z,-2.90
2024-02-09T08:35:34.942Z,-2.91
2024-02-09T08:38:03.768Z,-2.59
2024-02-09T08:40:32.337Z,-3.76
2024-02-09T08:43:02.973Z,-3.67
2024-02-09T08:45:31.735Z,-3.77
2024-02-09T08:48:00.539Z,-3.43
2024-02-09T08:50:29.257Z,-4.30
2024-02-09T08:52:58.100Z,-2.47
2024-02-09T08:55:28.391Z,-2.52
2024-02-09T08:57:57.307Z,-5.29
2024-02-09T09:00:27.369Z,-2.49
2024-02-09T09:02:56.536Z,-3.43
2024-02-09T09:05:26.004Z,-2.88
2024-02-09T09:07:55.212Z,-3.13
2024-02-09T09:10:24.038Z,-4.69
2024-02-09T09:12:53.123Z,-2.21
2024-02-09T09:15:22.041Z,-2.51
2024-02-09T09:17:53.158Z,-2.76
2024-02-09T09:20:22.038Z,-4.08
2024-02-09T09:22:51.180Z,-2.13
2024-02-09T09:25:19.792Z,-2.23
2024-02-09T09:27:49.550Z,-2.33
2024-02-09T09:30:19.097Z,-2.00
2024-02-09T09:32:48.024Z,-3.22
2024-02-09T09:35:18.255Z,-2.00
2024-02-09T09:37:47.482Z,-3.35
2024-02-09T09:40:17.851Z,-1.99
2024-02-09T09:42:47.118Z,-2.05
2024-02-09T09:45:20.251Z,-2.78
2024-02-09T09:47:49.453Z,-4.16
2024-02-09T09:50:22.191Z,-1.77
2024-02-09T09:52:56.665Z,-1.74
2024-02-09T09:55:29.205Z,-2.03
2024-02-09T09:57:58.808Z,-1.95
2024-02-09T10:00:29.144Z,-2.06
2024-02-09T10:03:00.603Z,-1.99
2024-02-09T10:05:32.393Z,-1.63
2024-02-09T10:08:03.049Z,-2.14
2024-02-09T10:10:32.365Z,-1.53
2024-02-09T10:13:13.242Z,-1.53
2024-02-09T10:15:43.411Z,-1.38
2024-02-09T10:18:15.075Z,-1.60
2024-02-09T10:20:46.620Z,-1.27
2024-02-09T10:23:15.985Z,-1.24
2024-02-09T10:25:45.301Z,-1.35
2024-02-09T10:28:15.303Z,-1.12
2024-02-09T10:30:45.116Z,-1.17
2024-02-09T10:33:14.715Z,-1.41
2024-02-09T10:35:45.227Z,-3.43
2024-02-09T10:38:15.133Z,-1.28
2024-02-09T10:40:44.542Z,-2.45
2024-02-09T10:43:16.515Z,-2.85
2024-02-09T10:45:46.168Z,-2.47
2024-02-09T10:48:17.657Z,-3.25
2024-02-09T10:50:48.569Z,-3.59
2024-02-09T10:53:26.166Z,-3.62
2024-02-09T10:56:04.594Z,-3.55
2024-02-09T10:58:38.521Z,-1.16
2024-02-09T11:01:08.504Z,-2.80
2024-02-09T11:03:44.298Z,-0.95
2024-02-09T11:06:16.119Z,-2.76
2024-02-09T11:08:48.612Z,-1.36
2024-02-09T11:11:17.405Z,-1.52
2024-02-09T11:13:47.078Z,-1.77
2024-02-09T11:16:28.017Z,-1.61
2024-02-09T11:18:57.242Z,-2.53
2024-02-09T11:21:28.409Z,-1.26
2024-02-09T11:24:00.048Z,-1.08
2024-02-09T11:26:38.335Z,-1.24
2024-02-09T11:29:08.267Z,-3.32
2024-02-09T11:31:38.636Z,-1.47
2024-02-09T11:34:08.503Z,-0.75
2024-02-09T11:36:39.054Z,-3.28
2024-02-09T11:39:12.081Z,-2.32
2024-02-09T11:41:43.580Z,-1.85
2024-02-09T11:44:14.032Z,-1.55
2024-02-09T11:46:46.311Z,-0.89
2024-02-09T11:49:16.462Z,-1.18
2024-02-09T11:51:53.373Z,-2.03
2024-02-09T11:54:24.234Z,-0.95
2024-02-09T11:57:04.501Z,-3.37
2024-02-09T11:59:35.990Z,-1.39
2024-02-09T12:02:05.238Z,-0.71
2024-02-09T12:04:35.069Z,-1.41
2024-02-09T12:07:06.776Z,-0.58
2024-02-09T12:09:37.902Z,-2.49
2024-02-09T12:12:10.224Z,-1.71
2024-02-09T12:14:39.962Z,-1.77
2024-02-09T12:17:10.564Z,-3.32
2024-02-09T12:19:43.679Z,-0.71
2024-02-09T12:22:15.649Z,-2.09
2024-02-09T12:24:46.855Z,-0.80
2024-02-09T12:27:16.788Z,-3.24
2024-02-09T12:29:46.542Z,-2.87
2024-02-09T12:32:19.479Z,-0.95
2024-02-09T12:34:52.727Z,-2.62
2024-02-09T12:37:28.363Z,-3.20
2024-02-09T12:40:00.639Z,-2.12
2024-02-09T12:42:34.528Z,-2.28
2024-02-09T12:45:07.541Z,-0.58
2024-02-09T12:47:40.455Z,-1.65
2024-02-09T12:50:11.521Z,-0.63
2024-02-09T12:52:45.666Z,-1.42
2024-02-09T12:55:16.897Z,-0.49
2024-02-09T12:57:47.712Z,-0.75
2024-02-09T13:00:17.602Z,-0.57
2024-02-09T13:02:46.618Z,-0.56
2024-02-09T13:05:17.676Z,-2.21
2024-02-09T13:07:50.084Z,-0.68
2024-02-09T13:10:22.550Z,-1.38
2024-02-09T13:12:55.343Z,-1.25
2024-02-09T13:15:30.469Z,-2.03
2024-02-09T13:18:00.104Z,-2.14
2024-02-09T13:20:31.226Z,-0.47
2024-02-09T13:23:03.435Z,-1.19
2024-02-09T13:25:36.046Z,-1.99
2024-02-09T13:28:05.741Z,-1.91
2024-02-09T13:30:38.561Z,-1.74
2024-02-09T13:33:08.792Z,-1.69
2024-02-09T13:35:39.423Z,-0.40
2024-02-09T13:38:12.857Z,-0.62
2024-02-09T13:40:44.320Z,-0.55
2024-02-09T13:43:16.145Z,-2.96
2024-02-09T13:45:48.332Z,-1.44
2024-02-09T13:48:26.430Z,-2.93
2024-02-09T13:51:01.211Z,-2.58
2024-02-09T13:53:32.008Z,-2.50
2024-02-09T13:56:02.700Z,-0.59
2024-02-09T13:58:34.478Z,-0.62
2024-02-09T14:01:05.309Z,-2.67
2024-02-09T14:03:36.555Z,-1.03
2024-02-09T14:06:07.998Z,-0.39
2024-02-09T14:08:40.409Z,-1.52
2024-02-09T14:11:10.313Z,-1.81
2024-02-09T14:13:41.764Z,-3.01
2024-02-09T14:16:14.571Z,-2.79
2024-02-09T14:18:47.841Z,-1.33
2024-02-09T14:21:18.436Z,-0.33
2024-02-09T14:23:48.968Z,-1.95
2024-02-09T14:26:20.949Z,-0.73
2024-02-09T14:28:52.902Z,-1.37
2024-02-09T14:31:24.517Z,-0.27
2024-02-09T14:33:55.349Z,-2.22
2024-02-09T14:36:28.915Z,-0.94
2024-02-09T14:39:01.785Z,-2.36
2024-02-09T14:41:31.512Z,-0.37
2024-02-09T14:44:02.306Z,-0.41
2024-02-09T14:46:36.089Z,-3.42
2024-02-09T14:49:05.368Z,-0.41
2024-02-09T14:51:37.524Z,-0.47
2024-02-09T14:54:10.804Z,-0.43
2024-02-09T14:56:48.660Z,-2.28
2024-02-09T14:59:27.589Z,-2.37
2024-02-09T15:01:59.038Z,-2.86
2024-02-09T15:04:32.493Z,-3.19
2024-02-09T15:07:02.738Z,-3.43
2024-02-09T15:09:38.590Z,-3.27
2024-02-09T15:12:09.411Z,-2.60
2024-02-09T15:14:38.850Z,-3.14
2024-02-09T15:17:11.171Z,-3.35
2024-02-09T15:20:01.042Z,-1.70
2024-02-09T15:22:31.510Z,-1.47
2024-02-09T15:25:07.882Z,-1.94
2024-02-09T15:27:51.219Z,-0.82
2024-02-09T15:30:21.651Z,-3.45
2024-02-09T15:32:51.558Z,-3.63
2024-02-09T15:35:22.489Z,-3.36
2024-02-09T15:37:55.973Z,-2.06
2024-02-09T15:40:29.093Z,-3.54
2024-02-09T15:42:58.625Z,-3.52
2024-02-09T15:45:28.969Z,-2.08
2024-02-09T15:47:58.532Z,-3.11
2024-02-09T15:50:29.352Z,-1.46
2024-02-09T15:53:00.605Z,-1.91
2024-02-09T15:55:39.527Z,-1.90
2024-02-09T15:58:11.208Z,-2.85
2024-02-09T16:00:41.786Z,-2.08
2024-02-09T16:03:12.900Z,-3.26
2024-02-09T16:05:45.469Z,-1.16
2024-02-09T16:08:20.343Z,-1.87
2024-02-09T16:10:53.072Z,-2.50
2024-02-09T16:13:22.459Z,-3.83
2024-02-09T16:15:53.385Z,-1.09
2024-02-09T16:18:23.701Z,-3.68
2024-02-09T16:20:54.243Z,-2.85
2024-02-09T16:23:23.661Z,-3.06
2024-02-09T16:26:02.455Z,-3.69
2024-02-09T16:28:36.903Z,-1.18
2024-02-09T16:31:10.407Z,-2.79
2024-02-09T16:33:39.948Z,-3.89
2024-02-09T16:36:09.914Z,-2.71
2024-02-09T16:38:40.304Z,-3.57
2024-02-09T16:41:14.112Z,-3.53
2024-02-09T16:43:48.151Z,-2.42
2024-02-09T16:46:18.223Z,-1.26
2024-02-09T16:48:48.670Z,-2.56
2024-02-09T16:51:18.918Z,-3.05
2024-02-09T16:53:48.436Z,-1.30
2024-02-09T16:56:21.640Z,-1.47
2024-02-09T16:58:52.392Z,-2.31
2024-02-09T17:01:26.699Z,-2.43
2024-02-09T17:03:59.288Z,-3.45
2024-02-09T17:06:30.277Z,-3.86
2024-02-09T17:09:00.827Z,-2.58
2024-02-09T17:11:31.561Z,-1.16
2024-02-09T17:14:05.683Z,-1.67
2024-02-09T17:16:41.898Z,-1.57
2024-02-09T17:19:17.330Z,-1.24
2024-02-09T17:21:48.092Z,-2.57
2024-02-09T17:24:20.020Z,-1.46
2024-02-09T17:26:59.486Z,-1.29
2024-02-09T17:29:33.515Z,-1.83
2024-02-09T17:32:02.575Z,-1.34
2024-02-09T17:34:43.296Z,-2.29
2024-02-09T17:37:13.509Z,-2.61
2024-02-09T17:39:45.483Z,-2.37
2024-02-09T17:42:17.263Z,-2.41
2024-02-09T17:44:51.332Z,-3.90
2024-02-09T17:47:22.645Z,-3.54
2024-02-09T17:49:53.735Z,-2.45
2024-02-09T17:52:25.993Z,-1.71
2024-02-09T17:54:58.800Z,-2.47
2024-02-09T17:57:30.717Z,-2.64
2024-02-09T18:00:01.043Z,-2.67
2024-02-09T18:02:30.297Z,-1.30
2024-02-09T18:05:01.106Z,-1.54
2024-02-09T18:07:32.602Z,-1.35
2024-02-09T18:10:02.438Z,-1.32
2024-02-09T18:12:35.002Z,-1.30
2024-02-09T18:15:07.001Z,-1.31
2024-02-09T18:17:36.101Z,-1.51
2024-02-09T18:20:11.933Z,-1.44
2024-02-09T18:22:42.519Z,-1.33
2024-02-09T18:25:16.967Z,-1.30
2024-02-09T18:27:47.776Z,-1.31
2024-02-09T18:30:23.801Z,-2.38
2024-02-09T18:32:56.885Z,-1.38
2024-02-09T18:35:30.787Z,-1.55
2024-02-09T18:38:00.801Z,-3.58
2024-02-09T18:40:32.454Z,-1.85
2024-02-09T18:43:05.719Z,-3.05
2024-02-09T18:45:38.026Z,-1.38
2024-02-09T18:48:09.182Z,-1.50
2024-02-09T18:50:41.076Z,-1.41
2024-02-09T18:53:16.597Z,-1.43
2024-02-09T18:55:52.115Z,-1.42
2024-02-09T18:58:40.484Z,-1.71
2024-02-09T19:01:20.104Z,-1.40
2024-02-09T19:03:55.297Z,-1.51
2024-02-09T19:06:32.442Z,-1.51
2024-02-09T19:09:03.221Z,-1.43
2024-02-09T19:11:36.547Z,-2.45
2024-02-09T19:14:11.284Z,-2.37
2024-02-09T19:16:47.962Z,-3.07
2024-02-09T19:19:20.776Z,-2.38
2024-02-09T19:22:00.757Z,-1.45
2024-02-09T19:24:31.584Z,-1.75
2024-02-09T19:27:08.902Z,-1.45
2024-02-09T19:29:43.787Z,-1.49
2024-02-09T19:32:17.348Z,-1.43
2024-02-09T19:34:57.111Z,-3.40
2024-02-09T19:37:30.960Z,-2.76
2024-02-09T19:40:04.914Z,-2.83
2024-02-09T19:42:40.577Z,-1.92
2024-02-09T19:45:19.760Z,-2.33
2024-02-09T19:47:55.376Z,-2.64
2024-02-09T19:50:29.332Z,-4.17
2024-02-09T19:53:08.450Z,-1.50
2024-02-09T19:55:43.895Z,-1.51
2024-02-09T19:58:22.515Z,-1.41
2024-02-09T20:01:00.581Z,-2.21
2024-02-09T20:03:30.410Z,-1.54
2024-02-09T20:06:04.101Z,-1.45
2024-02-09T20:08:34.713Z,-1.47
2024-02-09T20:11:06.487Z,-1.67
2024-02-09T20:13:36.935Z,-1.43
2024-02-09T20:16:12.094Z,-3.11
2024-02-09T20:18:42.851Z,-1.77
2024-02-09T20:21:14.742Z,-1.45
2024-02-09T20:23:46.230Z,-1.48
2024-02-09T20:26:16.664Z,-2.62
2024-02-09T20:28:50.123Z,-2.66
2024-02-09T20:31:24.027Z,-1.63
2024-02-09T20:33:54.682Z,-2.35
2024-02-09T20:36:35.031Z,-1.54
2024-02-09T20:39:06.432Z,-1.85
2024-02-09T20:41:38.130Z,-2.78
2024-02-09T20:44:13.598Z,-1.44
2024-02-09T20:46:48.115Z,-1.41
2024-02-09T20:49:21.059Z,-1.44
2024-02-09T20:51:57.166Z,-1.42
2024-02-09T20:54:29.037Z,-2.98
2024-02-09T20:57:01.805Z,-1.44
2024-02-09T20:59:41.625Z,-2.65
2024-02-09T21:02:16.226Z,-1.44
2024-02-09T21:04:50.718Z,-2.62
2024-02-09T21:07:20.596Z,-1.43
2024-02-09T21:09:53.914Z,-1.59
2024-02-09T21:12:25.169Z,-3.78
2024-02-09T21:14:56.219Z,-1.44
2024-02-09T21:17:35.893Z,-1.44
2024-02-09T21:20:12.617Z,-1.40
2024-02-09T21:22:46.004Z,-1.63
2024-02-09T21:25:21.066Z,-1.44
2024-02-09T21:27:52.817Z,-2.55
2024-02-09T21:30:25.747Z,-2.04
2024-02-09T21:33:03.196Z,-2.08
2024-02-09T21:35:33.076Z,-1.48
2024-02-09T21:38:15.647Z,-1.41
2024-02-09T21:41:11.372Z,-1.52
2024-02-09T21:43:46.081Z,-1.68
2024-02-09T21:46:31.022Z,-2.07
2024-02-09T21:49:23.628Z,-1.42
2024-02-09T21:52:02.519Z,-1.70
2024-02-09T21:54:43.913Z,-1.54
2024-02-09T21:57:17.441Z,-1.53
2024-02-09T21:59:49.761Z,-2.74
2024-02-09T22:02:21.690Z,-2.85
2024-02-09T22:04:54.395Z,-4.09
2024-02-09T22:07:23.673Z,-1.43
2024-02-09T22:09:53.182Z,-1.38
2024-02-09T22:12:27.599Z,-1.46
2024-02-09T22:15:01.323Z,-1.47
2024-02-09T22:17:33.621Z,-1.36
2024-02-09T22:20:12.997Z,-1.36
2024-02-09T22:22:45.545Z,-1.32
2024-02-09T22:25:22.575Z,-1.30
2024-02-09T22:27:58.464Z,-1.32
2024-02-09T22:33:20.462Z,-1.49
2024-02-09T22:35:54.582Z,-1.34
2024-02-09T22:38:29.203Z,-1.26
2024-02-09T22:41:21.806Z,-1.33
2024-02-09T22:43:55.274Z,-1.32
2024-02-09T22:46:42.367Z,-1.26
2024-02-09T22:52:36.712Z,-1.22
2024-02-09T22:55:21.399Z,-2.55
2024-02-09T22:58:03.461Z,-1.36
2024-02-09T23:01:02.562Z,-1.57
2024-02-09T23:03:51.046Z,-2.87
2024-02-09T23:06:38.656Z,-1.18
2024-02-09T23:09:22.229Z,-1.21
2024-02-09T23:12:03.633Z,-1.20
2024-02-09T23:14:35.148Z,-1.16
2024-02-09T23:17:05.787Z,-1.21
2024-02-09T23:19:39.167Z,-1.15
2024-02-09T23:22:10.100Z,-1.13
2024-02-09T23:24:41.606Z,-1.41
2024-02-09T23:27:22.280Z,-1.15
2024-02-09T23:29:56.144Z,-1.16
2024-02-09T23:32:27.894Z,-1.43
2024-02-09T23:35:03.231Z,-1.56
2024-02-09T23:37:32.399Z,-1.12
2024-02-09T23:40:12.289Z,-1.12
2024-02-09T23:42:53.224Z,-1.06
2024-02-09T23:45:25.831Z,-1.07
2024-02-09T23:47:54.813Z,-1.11
2024-02-09T23:50:30.035Z,-1.05
2024-02-09T23:53:04.717Z,-1.47
2024-02-09T23:55:39.648Z,-1.79
2024-02-09T23:58:12.489Z,-1.07
